sensor_id;sensor_type;location;lat;lon;timestamp;temperature;humidity
4399;DHT22;2213;49.720;7.296;2024-02-23T00:01:55;7.00;99.90
4399;DHT22;2213;49.720;7.296;2024-02-23T00:04:24;7.10;99.90
4399;DHT22;2213;49.720;7.296;2024-02-23T00:06:54;7.10;99.90
4399;DHT22;2213;49.720;7.296;2024-02-23T00:09:22;7.10;99.90
4399;DHT22;2213;49.720;7.296;2024-02-23T00:11:51;7.00;99.90
4399;DHT22;2213;49.720;7.296;2024-02-23T00:14:20;6.80;99.90
4399;DHT22;2213;49.720;7.296;2024-02-23T00:16:49;6.80;99.90
4399;DHT22;2213;49.720;7.296;2024-02-23T00:19:17;6.80;99.90
4399;DHT22;2213;49.720;7.296;2024-02-23T00:21:46;6.90;99.90
4399;DHT22;2213;49.720;7.296;2024-02-23T00:24:18;6.70;99.90
4399;DHT22;2213;49.720;7.296;2024-02-23T00:26:48;6.60;99.90
4399;DHT22;2213;49.720;7.296;2024-02-23T00:29:18;6.60;99.90
4399;DHT22;2213;49.720;7.296;2024-02-23T00:31:48;6.70;99.90
4399;DHT22;2213;49.720;7.296;2024-02-23T00:34:17;6.60;99.90
4399;DHT22;2213;49.720;7.296;2024-02-23T00:36:45;6.50;99.90
4399;DHT22;2213;49.720;7.296;2024-02-23T00:39:15;6.50;99.90
4399;DHT22;2213;49.720;7.296;2024-02-23T00:41:45;6.50;99.90
4399;DHT22;2213;49.720;7.296;2024-02-23T00:44:13;6.30;99.90
4399;DHT22;2213;49.720;7.296;2024-02-23T00:46:42;6.30;99.90
4399;DHT22;2213;49.720;7.296;2024-02-23T00:49:10;6.30;99.90
4399;DHT22;2213;49.720;7.296;2024-02-23T00:51:39;6.30;99.90
4399;DHT22;2213;49.720;7.296;2024-02-23T00:54:07;6.20;99.90
4399;DHT22;2213;49.720;7.296;2024-02-23T00:56:36;6.20;99.90
4399;DHT22;2213;49.720;7.296;2024-02-23T00:59:18;6.20;99.90
4399;DHT22;2213;49.720;7.296;2024-02-23T01:01:48;6.30;99.90
4399;DHT22;2213;49.720;7.296;2024-02-23T01:04:16;6.30;99.90
4399;DHT22;2213;49.720;7.296;2024-02-23T01:06:44;6.10;99.90
4399;DHT22;2213;49.720;7.296;2024-02-23T01:09:13;6.20;99.90
4399;DHT22;2213;49.720;7.296;2024-02-23T01:11:43;6.10;99.90
4399;DHT22;2213;49.720;7.296;2024-02-23T01:14:12;6.10;99.90
4399;DHT22;2213;49.720;7.296;2024-02-23T01:16:42;6.20;99.90
4399;DHT22;2213;49.720;7.296;2024-02-23T01:19:10;6.00;99.90
4399;DHT22;2213;49.720;7.296;2024-02-23T01:21:39;5.90;99.90
4399;DHT22;2213;49.720;7.296;2024-02-23T01:24:07;5.90;99.90
4399;DHT22;2213;49.720;7.296;2024-02-23T01:26:36;5.90;99.90
4399;DHT22;2213;49.720;7.296;2024-02-23T01:29:08;6.00;99.90
4399;DHT22;2213;49.720;7.296;2024-02-23T01:31:37;6.10;99.90
4399;DHT22;2213;49.720;7.296;2024-02-23T01:34:07;6.10;99.90
4399;DHT22;2213;49.720;7.296;2024-02-23T01:36:35;6.00;99.90
4399;DHT22;2213;49.720;7.296;2024-02-23T01:39:05;6.00;99.90
4399;DHT22;2213;49.720;7.296;2024-02-23T01:41:34;6.10;99.90
4399;DHT22;2213;49.720;7.296;2024-02-23T01:44:03;6.00;99.90
4399;DHT22;2213;49.720;7.296;2024-02-23T01:46:32;6.10;99.90
4399;DHT22;2213;49.720;7.296;2024-02-23T01:49:01;6.10;99.90
4399;DHT22;2213;49.720;7.296;2024-02-23T01:51:31;6.20;99.90
4399;DHT22;2213;49.720;7.296;2024-02-23T01:54:00;6.10;99.90
4399;DHT22;2213;49.720;7.296;2024-02-23T01:56:29;6.10;99.90
4399;DHT22;2213;49.720;7.296;2024-02-23T01:58:58;6.20;99.90
4399;DHT22;2213;49.720;7.296;2024-02-23T02:01:30;6.20;99.90
4399;DHT22;2213;49.720;7.296;2024-02-23T02:03:58;6.20;99.90
4399;DHT22;2213;49.720;7.296;2024-02-23T02:06:27;6.10;99.90
4399;DHT22;2213;49.720;7.296;2024-02-23T02:08:57;6.00;99.90
4399;DHT22;2213;49.720;7.296;2024-02-23T02:11:25;5.90;99.90
4399;DHT22;2213;49.720;7.296;2024-02-23T02:13:54;5.90;99.90
4399;DHT22;2213;49.720;7.296;2024-02-23T02:16:22;5.80;99.90
4399;DHT22;2213;49.720;7.296;2024-02-23T02:18:51;5.70;99.90
4399;DHT22;2213;49.720;7.296;2024-02-23T02:21:19;5.70;99.90
4399;DHT22;2213;49.720;7.296;2024-02-23T02:23:50;5.80;99.90
4399;DHT22;2213;49.720;7.296;2024-02-23T02:26:20;5.70;99.90
4399;DHT22;2213;49.720;7.296;2024-02-23T02:28:48;5.60;99.90
4399;DHT22;2213;49.720;7.296;2024-02-23T02:31:17;5.70;99.90
4399;DHT22;2213;49.720;7.296;2024-02-23T02:33:46;5.70;99.90
4399;DHT22;2213;49.720;7.296;2024-02-23T02:36:14;5.50;99.90
4399;DHT22;2213;49.720;7.296;2024-02-23T02:38:43;5.50;99.90
4399;DHT22;2213;49.720;7.296;2024-02-23T02:41:11;5.60;99.90
4399;DHT22;2213;49.720;7.296;2024-02-23T02:43:41;5.60;99.90
4399;DHT22;2213;49.720;7.296;2024-02-23T02:46:09;5.50;99.90
4399;DHT22;2213;49.720;7.296;2024-02-23T02:48:38;5.60;99.90
4399;DHT22;2213;49.720;7.296;2024-02-23T02:51:06;5.60;99.90
4399;DHT22;2213;49.720;7.296;2024-02-23T02:53:35;5.60;99.90
4399;DHT22;2213;49.720;7.296;2024-02-23T02:56:05;5.50;99.90
4399;DHT22;2213;49.720;7.296;2024-02-23T02:58:34;5.60;99.90
4399;DHT22;2213;49.720;7.296;2024-02-23T03:01:04;5.50;99.90
4399;DHT22;2213;49.720;7.296;2024-02-23T03:03:33;5.60;99.90
4399;DHT22;2213;49.720;7.296;2024-02-23T03:06:01;5.60;99.90
4399;DHT22;2213;49.720;7.296;2024-02-23T03:08:30;5.60;99.90
4399;DHT22;2213;49.720;7.296;2024-02-23T03:10:58;5.60;99.90
4399;DHT22;2213;49.720;7.296;2024-02-23T03:13:27;5.50;99.90
4399;DHT22;2213;49.720;7.296;2024-02-23T03:15:55;5.60;99.90
4399;DHT22;2213;49.720;7.296;2024-02-23T03:18:25;5.50;99.90
4399;DHT22;2213;49.720;7.296;2024-02-23T03:20:54;5.60;99.90
4399;DHT22;2213;49.720;7.296;2024-02-23T03:23:23;5.60;99.90
4399;DHT22;2213;49.720;7.296;2024-02-23T03:25:52;5.50;99.90
4399;DHT22;2213;49.720;7.296;2024-02-23T03:28:20;5.40;99.90
4399;DHT22;2213;49.720;7.296;2024-02-23T03:30:49;5.40;99.90
4399;DHT22;2213;49.720;7.296;2024-02-23T03:33:17;5.50;99.90
4399;DHT22;2213;49.720;7.296;2024-02-23T03:35:47;5.40;99.90
4399;DHT22;2213;49.720;7.296;2024-02-23T03:38:15;5.50;99.90
4399;DHT22;2213;49.720;7.296;2024-02-23T03:40:44;5.40;99.90
4399;DHT22;2213;49.720;7.296;2024-02-23T03:43:13;5.50;99.90
4399;DHT22;2213;49.720;7.296;2024-02-23T03:45:41;5.40;99.90
4399;DHT22;2213;49.720;7.296;2024-02-23T03:48:10;5.40;99.90
4399;DHT22;2213;49.720;7.296;2024-02-23T03:50:38;5.40;99.90
4399;DHT22;2213;49.720;7.296;2024-02-23T03:53:08;5.40;99.90
4399;DHT22;2213;49.720;7.296;2024-02-23T03:55:36;5.30;99.90
4399;DHT22;2213;49.720;7.296;2024-02-23T03:58:05;5.30;99.90
4399;DHT22;2213;49.720;7.296;2024-02-23T04:00:33;5.20;99.90
4399;DHT22;2213;49.720;7.296;2024-02-23T04:03:02;5.20;99.90
4399;DHT22;2213;49.720;7.296;2024-02-23T04:05:30;5.30;99.90
4399;DHT22;2213;49.720;7.296;2024-02-23T04:07:59;5.20;99.90
4399;DHT22;2213;49.720;7.296;2024-02-23T04:10:29;5.20;99.90
4399;DHT22;2213;49.720;7.296;2024-02-23T04:12:58;5.10;99.90
4399;DHT22;2213;49.720;7.296;2024-02-23T04:15:26;5.10;99.90
4399;DHT22;2213;49.720;7.296;2024-02-23T04:17:55;5.00;99.90
4399;DHT22;2213;49.720;7.296;2024-02-23T04:20:23;5.10;99.90
4399;DHT22;2213;49.720;7.296;2024-02-23T04:22:52;5.20;99.90
4399;DHT22;2213;49.720;7.296;2024-02-23T04:25:20;5.00;99.90
4399;DHT22;2213;49.720;7.296;2024-02-23T04:27:50;5.10;99.90
4399;DHT22;2213;49.720;7.296;2024-02-23T04:30:18;5.00;99.90
4399;DHT22;2213;49.720;7.296;2024-02-23T04:32:47;5.00;99.90
4399;DHT22;2213;49.720;7.296;2024-02-23T04:35:15;5.00;99.90
4399;DHT22;2213;49.720;7.296;2024-02-23T04:37:44;5.10;99.90
4399;DHT22;2213;49.720;7.296;2024-02-23T04:40:13;5.20;99.90
4399;DHT22;2213;49.720;7.296;2024-02-23T04:42:43;5.10;99.90
4399;DHT22;2213;49.720;7.296;2024-02-23T04:45:13;5.10;99.90
4399;DHT22;2213;49.720;7.296;2024-02-23T04:47:42;5.10;99.90
4399;DHT22;2213;49.720;7.296;2024-02-23T04:50:14;5.10;99.90
4399;DHT22;2213;49.720;7.296;2024-02-23T04:52:42;5.10;99.90
4399;DHT22;2213;49.720;7.296;2024-02-23T04:55:11;5.00;99.90
4399;DHT22;2213;49.720;7.296;2024-02-23T04:57:39;5.10;99.90
4399;DHT22;2213;49.720;7.296;2024-02-23T05:00:09;5.10;99.90
4399;DHT22;2213;49.720;7.296;2024-02-23T05:02:39;5.10;99.90
4399;DHT22;2213;49.720;7.296;2024-02-23T05:05:08;5.20;99.90
4399;DHT22;2213;49.720;7.296;2024-02-23T05:07:37;5.20;99.90
4399;DHT22;2213;49.720;7.296;2024-02-23T05:10:06;5.10;99.90
4399;DHT22;2213;49.720;7.296;2024-02-23T05:12:34;5.20;99.90
4399;DHT22;2213;49.720;7.296;2024-02-23T05:15:04;5.20;99.90
4399;DHT22;2213;49.720;7.296;2024-02-23T05:17:33;5.30;99.90
4399;DHT22;2213;49.720;7.296;2024-02-23T05:20:03;5.20;99.90
4399;DHT22;2213;49.720;7.296;2024-02-23T05:22:37;5.10;99.90
4399;DHT22;2213;49.720;7.296;2024-02-23T05:25:07;5.10;99.90
4399;DHT22;2213;49.720;7.296;2024-02-23T05:27:36;5.10;99.90
4399;DHT22;2213;49.720;7.296;2024-02-23T05:30:05;5.10;99.90
4399;DHT22;2213;49.720;7.296;2024-02-23T05:32:35;5.00;99.90
4399;DHT22;2213;49.720;7.296;2024-02-23T05:35:06;5.00;99.90
4399;DHT22;2213;49.720;7.296;2024-02-23T05:37:35;5.10;99.90
4399;DHT22;2213;49.720;7.296;2024-02-23T05:40:04;5.10;99.90
4399;DHT22;2213;49.720;7.296;2024-02-23T05:42:37;5.00;99.90
4399;DHT22;2213;49.720;7.296;2024-02-23T05:45:07;4.80;99.90
4399;DHT22;2213;49.720;7.296;2024-02-23T05:47:37;5.00;99.90
4399;DHT22;2213;49.720;7.296;2024-02-23T05:50:12;5.00;99.90
4399;DHT22;2213;49.720;7.296;2024-02-23T05:52:40;4.90;99.90
4399;DHT22;2213;49.720;7.296;2024-02-23T05:55:09;5.00;99.90
4399;DHT22;2213;49.720;7.296;2024-02-23T05:57:37;4.90;99.90
4399;DHT22;2213;49.720;7.296;2024-02-23T06:00:06;4.90;99.90
4399;DHT22;2213;49.720;7.296;2024-02-23T06:02:35;4.90;99.90
4399;DHT22;2213;49.720;7.296;2024-02-23T06:05:05;4.90;99.90
4399;DHT22;2213;49.720;7.296;2024-02-23T06:07:36;4.90;99.90
4399;DHT22;2213;49.720;7.296;2024-02-23T06:10:05;4.90;99.90
4399;DHT22;2213;49.720;7.296;2024-02-23T06:12:35;5.00;99.90
4399;DHT22;2213;49.720;7.296;2024-02-23T06:15:04;5.00;99.90
4399;DHT22;2213;49.720;7.296;2024-02-23T06:17:33;4.90;99.90
4399;DHT22;2213;49.720;7.296;2024-02-23T06:20:02;4.90;99.90
4399;DHT22;2213;49.720;7.296;2024-02-23T06:22:33;4.90;99.90
4399;DHT22;2213;49.720;7.296;2024-02-23T06:25:04;4.90;99.90
4399;DHT22;2213;49.720;7.296;2024-02-23T06:27:33;4.80;99.90
4399;DHT22;2213;49.720;7.296;2024-02-23T06:30:01;4.80;99.90
4399;DHT22;2213;49.720;7.296;2024-02-23T06:32:30;4.90;99.90
4399;DHT22;2213;49.720;7.296;2024-02-23T06:34:59;4.90;99.90
4399;DHT22;2213;49.720;7.296;2024-02-23T06:37:27;4.80;99.90
4399;DHT22;2213;49.720;7.296;2024-02-23T06:39:56;4.80;99.90
4399;DHT22;2213;49.720;7.296;2024-02-23T06:42:25;4.80;99.90
4399;DHT22;2213;49.720;7.296;2024-02-23T06:44:54;4.80;99.90
4399;DHT22;2213;49.720;7.296;2024-02-23T06:47:22;4.80;99.90
4399;DHT22;2213;49.720;7.296;2024-02-23T06:49:51;4.80;99.90
4399;DHT22;2213;49.720;7.296;2024-02-23T06:52:20;4.90;99.90
4399;DHT22;2213;49.720;7.296;2024-02-23T06:54:50;4.90;99.90
4399;DHT22;2213;49.720;7.296;2024-02-23T06:57:18;5.00;99.90
4399;DHT22;2213;49.720;7.296;2024-02-23T06:59:48;4.90;99.90
4399;DHT22;2213;49.720;7.296;2024-02-23T07:02:16;4.90;99.90
4399;DHT22;2213;49.720;7.296;2024-02-23T07:04:45;5.00;99.90
4399;DHT22;2213;49.720;7.296;2024-02-23T07:07:13;5.00;99.90
4399;DHT22;2213;49.720;7.296;2024-02-23T07:09:42;4.90;99.90
4399;DHT22;2213;49.720;7.296;2024-02-23T07:12:10;5.00;99.90
4399;DHT22;2213;49.720;7.296;2024-02-23T07:14:40;4.90;99.90
4399;DHT22;2213;49.720;7.296;2024-02-23T07:17:10;5.00;99.90
4399;DHT22;2213;49.720;7.296;2024-02-23T07:19:39;5.10;99.90
4399;DHT22;2213;49.720;7.296;2024-02-23T07:22:07;5.00;99.90
4399;DHT22;2213;49.720;7.296;2024-02-23T07:24:39;5.10;99.90
4399;DHT22;2213;49.720;7.296;2024-02-23T07:27:08;5.10;99.90
4399;DHT22;2213;49.720;7.296;2024-02-23T07:29:37;5.00;99.90
4399;DHT22;2213;49.720;7.296;2024-02-23T07:32:06;4.90;99.90
4399;DHT22;2213;49.720;7.296;2024-02-23T07:34:36;5.00;99.90
4399;DHT22;2213;49.720;7.296;2024-02-23T07:37:05;5.10;99.90
4399;DHT22;2213;49.720;7.296;2024-02-23T07:39:33;5.10;99.90
4399;DHT22;2213;49.720;7.296;2024-02-23T07:42:02;5.00;99.90
4399;DHT22;2213;49.720;7.296;2024-02-23T07:44:32;4.90;99.90
4399;DHT22;2213;49.720;7.296;2024-02-23T07:47:00;4.90;99.90
4399;DHT22;2213;49.720;7.296;2024-02-23T07:49:29;5.00;99.90
4399;DHT22;2213;49.720;7.296;2024-02-23T07:51:59;4.90;99.90
4399;DHT22;2213;49.720;7.296;2024-02-23T07:54:29;5.00;99.90
4399;DHT22;2213;49.720;7.296;2024-02-23T07:56:57;5.00;99.90
4399;DHT22;2213;49.720;7.296;2024-02-23T07:59:26;5.00;99.90
4399;DHT22;2213;49.720;7.296;2024-02-23T08:01:55;5.10;99.90
4399;DHT22;2213;49.720;7.296;2024-02-23T08:04:23;5.20;99.90
4399;DHT22;2213;49.720;7.296;2024-02-23T08:06:52;5.20;99.90
4399;DHT22;2213;49.720;7.296;2024-02-23T08:09:22;5.20;99.90
4399;DHT22;2213;49.720;7.296;2024-02-23T08:11:50;5.10;99.90
4399;DHT22;2213;49.720;7.296;2024-02-23T08:14:19;5.20;99.90
4399;DHT22;2213;49.720;7.296;2024-02-23T08:16:47;5.20;99.90
4399;DHT22;2213;49.720;7.296;2024-02-23T08:19:17;5.10;99.90
4399;DHT22;2213;49.720;7.296;2024-02-23T08:21:45;5.20;99.90
4399;DHT22;2213;49.720;7.296;2024-02-23T08:24:13;5.20;99.90
4399;DHT22;2213;49.720;7.296;2024-02-23T08:26:43;5.20;99.90
4399;DHT22;2213;49.720;7.296;2024-02-23T08:29:12;5.20;99.90
4399;DHT22;2213;49.720;7.296;2024-02-23T08:31:40;5.10;99.90
4399;DHT22;2213;49.720;7.296;2024-02-23T08:34:09;5.10;99.90
4399;DHT22;2213;49.720;7.296;2024-02-23T08:36:37;5.30;99.90
4399;DHT22;2213;49.720;7.296;2024-02-23T08:39:06;5.20;99.90
4399;DHT22;2213;49.720;7.296;2024-02-23T08:41:34;5.20;99.90
4399;DHT22;2213;49.720;7.296;2024-02-23T08:44:04;5.30;99.90
4399;DHT22;2213;49.720;7.296;2024-02-23T08:46:33;5.30;99.90
4399;DHT22;2213;49.720;7.296;2024-02-23T08:49:02;5.40;99.90
4399;DHT22;2213;49.720;7.296;2024-02-23T08:51:30;5.30;99.90
4399;DHT22;2213;49.720;7.296;2024-02-23T08:53:59;5.30;99.90
4399;DHT22;2213;49.720;7.296;2024-02-23T08:56:31;5.30;99.90
4399;DHT22;2213;49.720;7.296;2024-02-23T08:59:00;5.30;99.90
4399;DHT22;2213;49.720;7.296;2024-02-23T09:01:29;5.30;99.90
4399;DHT22;2213;49.720;7.296;2024-02-23T09:03:59;5.40;99.90
4399;DHT22;2213;49.720;7.296;2024-02-23T09:06:27;5.40;99.90
4399;DHT22;2213;49.720;7.296;2024-02-23T09:08:56;5.50;99.90
4399;DHT22;2213;49.720;7.296;2024-02-23T09:11:24;5.50;99.90
4399;DHT22;2213;49.720;7.296;2024-02-23T09:13:53;5.50;99.90
4399;DHT22;2213;49.720;7.296;2024-02-23T09:16:21;5.50;99.90
4399;DHT22;2213;49.720;7.296;2024-02-23T09:18:52;5.60;99.90
4399;DHT22;2213;49.720;7.296;2024-02-23T09:21:21;5.60;99.90
4399;DHT22;2213;49.720;7.296;2024-02-23T09:23:49;5.70;99.90
4399;DHT22;2213;49.720;7.296;2024-02-23T09:26:18;5.90;99.90
4399;DHT22;2213;49.720;7.296;2024-02-23T09:28:46;5.80;99.90
4399;DHT22;2213;49.720;7.296;2024-02-23T09:31:15;5.70;99.90
4399;DHT22;2213;49.720;7.296;2024-02-23T09:33:43;5.70;99.90
4399;DHT22;2213;49.720;7.296;2024-02-23T09:36:14;5.70;99.90
4399;DHT22;2213;49.720;7.296;2024-02-23T09:38:43;5.80;99.90
4399;DHT22;2213;49.720;7.296;2024-02-23T09:41:19;5.80;99.90
4399;DHT22;2213;49.720;7.296;2024-02-23T09:43:49;5.70;99.90
4399;DHT22;2213;49.720;7.296;2024-02-23T09:46:22;5.70;99.90
4399;DHT22;2213;49.720;7.296;2024-02-23T09:48:51;5.80;99.90
4399;DHT22;2213;49.720;7.296;2024-02-23T09:51:23;5.70;99.90
4399;DHT22;2213;49.720;7.296;2024-02-23T09:53:51;5.80;99.90
4399;DHT22;2213;49.720;7.296;2024-02-23T09:56:21;5.70;99.90
4399;DHT22;2213;49.720;7.296;2024-02-23T09:58:57;5.80;99.90
4399;DHT22;2213;49.720;7.296;2024-02-23T10:01:28;5.90;99.90
4399;DHT22;2213;49.720;7.296;2024-02-23T10:04:00;5.90;99.90
4399;DHT22;2213;49.720;7.296;2024-02-23T10:06:33;5.80;99.90
4399;DHT22;2213;49.720;7.296;2024-02-23T10:09:02;5.80;99.90
4399;DHT22;2213;49.720;7.296;2024-02-23T10:11:32;6.00;99.90
4399;DHT22;2213;49.720;7.296;2024-02-23T10:14:00;6.10;99.90
4399;DHT22;2213;49.720;7.296;2024-02-23T10:16:29;6.10;99.90
4399;DHT22;2213;49.720;7.296;2024-02-23T10:18:58;6.10;99.90
4399;DHT22;2213;49.720;7.296;2024-02-23T10:21:26;6.00;99.90
4399;DHT22;2213;49.720;7.296;2024-02-23T10:23:56;6.10;99.90
4399;DHT22;2213;49.720;7.296;2024-02-23T10:26:26;6.10;99.90
4399;DHT22;2213;49.720;7.296;2024-02-23T10:28:55;6.20;99.90
4399;DHT22;2213;49.720;7.296;2024-02-23T10:31:25;6.30;99.90
4399;DHT22;2213;49.720;7.296;2024-02-23T10:33:58;6.40;99.90
4399;DHT22;2213;49.720;7.296;2024-02-23T10:36:28;6.30;99.90
4399;DHT22;2213;49.720;7.296;2024-02-23T10:39:02;6.30;99.90
4399;DHT22;2213;49.720;7.296;2024-02-23T10:41:35;6.40;99.90
4399;DHT22;2213;49.720;7.296;2024-02-23T10:44:05;6.50;99.90
4399;DHT22;2213;49.720;7.296;2024-02-23T10:46:35;6.50;99.90
4399;DHT22;2213;49.720;7.296;2024-02-23T10:49:07;6.40;99.90
4399;DHT22;2213;49.720;7.296;2024-02-23T10:51:38;6.40;99.90
4399;DHT22;2213;49.720;7.296;2024-02-23T10:54:10;6.40;99.90
4399;DHT22;2213;49.720;7.296;2024-02-23T10:56:40;6.20;99.90
4399;DHT22;2213;49.720;7.296;2024-02-23T10:59:09;6.20;99.90
4399;DHT22;2213;49.720;7.296;2024-02-23T11:01:39;6.30;99.90
4399;DHT22;2213;49.720;7.296;2024-02-23T11:04:08;6.40;99.90
4399;DHT22;2213;49.720;7.296;2024-02-23T11:06:37;6.40;99.90
4399;DHT22;2213;49.720;7.296;2024-02-23T11:09:06;6.50;99.90
4399;DHT22;2213;49.720;7.296;2024-02-23T11:11:38;6.60;99.90
4399;DHT22;2213;49.720;7.296;2024-02-23T11:14:10;6.60;99.90
4399;DHT22;2213;49.720;7.296;2024-02-23T11:16:39;6.60;99.90
4399;DHT22;2213;49.720;7.296;2024-02-23T11:19:09;6.60;99.90
4399;DHT22;2213;49.720;7.296;2024-02-23T11:21:38;6.60;99.90
4399;DHT22;2213;49.720;7.296;2024-02-23T11:24:07;6.60;99.90
4399;DHT22;2213;49.720;7.296;2024-02-23T11:26:38;6.80;99.90
4399;DHT22;2213;49.720;7.296;2024-02-23T11:29:11;6.80;99.90
4399;DHT22;2213;49.720;7.296;2024-02-23T11:31:46;6.80;99.90
4399;DHT22;2213;49.720;7.296;2024-02-23T11:34:22;6.80;99.90
4399;DHT22;2213;49.720;7.296;2024-02-23T11:36:53;6.80;99.90
4399;DHT22;2213;49.720;7.296;2024-02-23T11:39:23;6.90;99.90
4399;DHT22;2213;49.720;7.296;2024-02-23T11:41:53;6.90;99.90
4399;DHT22;2213;49.720;7.296;2024-02-23T11:44:22;6.90;99.90
4399;DHT22;2213;49.720;7.296;2024-02-23T11:46:50;6.90;99.90
4399;DHT22;2213;49.720;7.296;2024-02-23T11:49:19;6.90;99.90
4399;DHT22;2213;49.720;7.296;2024-02-23T11:51:47;7.00;99.90
4399;DHT22;2213;49.720;7.296;2024-02-23T11:54:16;7.00;99.90
4399;DHT22;2213;49.720;7.296;2024-02-23T11:56:45;7.10;99.90
4399;DHT22;2213;49.720;7.296;2024-02-23T11:59:17;7.10;99.90
4399;DHT22;2213;49.720;7.296;2024-02-23T12:01:46;7.20;99.90
4399;DHT22;2213;49.720;7.296;2024-02-23T12:04:15;7.20;99.90
4399;DHT22;2213;49.720;7.296;2024-02-23T12:06:43;7.10;99.90
4399;DHT22;2213;49.720;7.296;2024-02-23T12:09:13;7.30;99.90
4399;DHT22;2213;49.720;7.296;2024-02-23T12:11:42;7.30;99.90
4399;DHT22;2213;49.720;7.296;2024-02-23T12:14:11;7.20;99.90
4399;DHT22;2213;49.720;7.296;2024-02-23T12:16:41;7.10;99.90
4399;DHT22;2213;49.720;7.296;2024-02-23T12:19:09;7.10;99.90
4399;DHT22;2213;49.720;7.296;2024-02-23T12:21:38;7.20;99.90
4399;DHT22;2213;49.720;7.296;2024-02-23T12:24:07;7.10;99.90
4399;DHT22;2213;49.720;7.296;2024-02-23T12:26:35;7.30;99.90
4399;DHT22;2213;49.720;7.296;2024-02-23T12:29:05;7.30;99.90
4399;DHT22;2213;49.720;7.296;2024-02-23T12:31:34;7.20;99.90
4399;DHT22;2213;49.720;7.296;2024-02-23T12:34:04;7.20;99.90
4399;DHT22;2213;49.720;7.296;2024-02-23T12:36:35;7.20;99.90
4399;DHT22;2213;49.720;7.296;2024-02-23T12:39:04;7.40;99.90
4399;DHT22;2213;49.720;7.296;2024-02-23T12:41:33;7.40;99.90
4399;DHT22;2213;49.720;7.296;2024-02-23T12:44:02;7.50;99.90
4399;DHT22;2213;49.720;7.296;2024-02-23T12:46:30;7.40;99.90
4399;DHT22;2213;49.720;7.296;2024-02-23T12:48:58;7.40;99.90
4399;DHT22;2213;49.720;7.296;2024-02-23T12:51:31;7.40;99.90
4399;DHT22;2213;49.720;7.296;2024-02-23T12:54:00;7.50;99.90
4399;DHT22;2213;49.720;7.296;2024-02-23T12:56:28;7.50;99.90
4399;DHT22;2213;49.720;7.296;2024-02-23T12:58:58;7.60;99.90
4399;DHT22;2213;49.720;7.296;2024-02-23T13:01:26;7.70;99.90
4399;DHT22;2213;49.720;7.296;2024-02-23T13:03:55;7.60;99.90
4399;DHT22;2213;49.720;7.296;2024-02-23T13:06:23;7.70;99.90
4399;DHT22;2213;49.720;7.296;2024-02-23T13:08:53;7.70;99.90
4399;DHT22;2213;49.720;7.296;2024-02-23T13:11:22;7.80;99.90
4399;DHT22;2213;49.720;7.296;2024-02-23T13:13:50;7.80;99.90
4399;DHT22;2213;49.720;7.296;2024-02-23T13:16:19;7.90;99.90
4399;DHT22;2213;49.720;7.296;2024-02-23T13:18:47;8.00;99.90
4399;DHT22;2213;49.720;7.296;2024-02-23T13:21:16;8.10;99.90
4399;DHT22;2213;49.720;7.296;2024-02-23T13:23:44;8.00;99.90
4399;DHT22;2213;49.720;7.296;2024-02-23T13:26:14;8.20;99.90
4399;DHT22;2213;49.720;7.296;2024-02-23T13:28:43;8.30;99.90
4399;DHT22;2213;49.720;7.296;2024-02-23T13:31:12;8.40;99.90
4399;DHT22;2213;49.720;7.296;2024-02-23T13:33:42;8.30;99.90
4399;DHT22;2213;49.720;7.296;2024-02-23T13:36:12;8.50;99.90
4399;DHT22;2213;49.720;7.296;2024-02-23T13:38:40;8.30;99.90
4399;DHT22;2213;49.720;7.296;2024-02-23T13:41:09;8.50;99.90
4399;DHT22;2213;49.720;7.296;2024-02-23T13:43:40;8.50;99.90
4399;DHT22;2213;49.720;7.296;2024-02-23T13:46:08;8.40;99.90
4399;DHT22;2213;49.720;7.296;2024-02-23T13:48:37;8.50;99.90
4399;DHT22;2213;49.720;7.296;2024-02-23T13:51:05;8.60;99.90
4399;DHT22;2213;49.720;7.296;2024-02-23T13:53:34;8.60;99.90
4399;DHT22;2213;49.720;7.296;2024-02-23T13:56:04;8.50;99.90
4399;DHT22;2213;49.720;7.296;2024-02-23T13:58:33;8.40;99.90
4399;DHT22;2213;49.720;7.296;2024-02-23T14:01:03;8.50;99.90
4399;DHT22;2213;49.720;7.296;2024-02-23T14:03:32;8.60;99.90
4399;DHT22;2213;49.720;7.296;2024-02-23T14:06:01;8.50;99.90
4399;DHT22;2213;49.720;7.296;2024-02-23T14:08:29;8.50;99.90
4399;DHT22;2213;49.720;7.296;2024-02-23T14:11:01;8.70;99.90
4399;DHT22;2213;49.720;7.296;2024-02-23T14:13:30;8.80;99.90
4399;DHT22;2213;49.720;7.296;2024-02-23T14:15:58;8.60;99.90
4399;DHT22;2213;49.720;7.296;2024-02-23T14:18:29;8.60;99.90
4399;DHT22;2213;49.720;7.296;2024-02-23T14:20:59;8.60;99.90
4399;DHT22;2213;49.720;7.296;2024-02-23T14:23:27;8.70;99.90
4399;DHT22;2213;49.720;7.296;2024-02-23T14:25:56;8.70;99.90
4399;DHT22;2213;49.720;7.296;2024-02-23T14:28:24;8.60;99.90
4399;DHT22;2213;49.720;7.296;2024-02-23T14:30:53;8.70;99.90
4399;DHT22;2213;49.720;7.296;2024-02-23T14:33:21;8.90;99.90
4399;DHT22;2213;49.720;7.296;2024-02-23T14:35:51;8.80;99.90
4399;DHT22;2213;49.720;7.296;2024-02-23T14:38:20;8.80;99.90
4399;DHT22;2213;49.720;7.296;2024-02-23T14:40:49;8.80;99.90
4399;DHT22;2213;49.720;7.296;2024-02-23T14:43:18;8.80;99.90
4399;DHT22;2213;49.720;7.296;2024-02-23T14:45:46;8.90;99.90
4399;DHT22;2213;49.720;7.296;2024-02-23T14:48:15;8.80;99.90
4399;DHT22;2213;49.720;7.296;2024-02-23T14:50:44;8.80;99.90
4399;DHT22;2213;49.720;7.296;2024-02-23T14:53:15;8.60;99.90
4399;DHT22;2213;49.720;7.296;2024-02-23T14:55:44;8.50;99.90
4399;DHT22;2213;49.720;7.296;2024-02-23T14:58:13;8.50;99.90
4399;DHT22;2213;49.720;7.296;2024-02-23T15:00:41;8.40;99.90
4399;DHT22;2213;49.720;7.296;2024-02-23T15:03:10;8.30;99.90
4399;DHT22;2213;49.720;7.296;2024-02-23T15:05:38;8.40;99.90
4399;DHT22;2213;49.720;7.296;2024-02-23T15:08:07;8.30;99.90
4399;DHT22;2213;49.720;7.296;2024-02-23T15:10:37;8.30;99.90
4399;DHT22;2213;49.720;7.296;2024-02-23T15:13:05;8.50;99.90
4399;DHT22;2213;49.720;7.296;2024-02-23T15:15:35;8.50;99.90
4399;DHT22;2213;49.720;7.296;2024-02-23T15:18:07;8.60;99.90
4399;DHT22;2213;49.720;7.296;2024-02-23T15:20:36;8.60;99.90
4399;DHT22;2213;49.720;7.296;2024-02-23T15:23:05;8.60;99.90
4399;DHT22;2213;49.720;7.296;2024-02-23T15:25:33;8.50;99.90
4399;DHT22;2213;49.720;7.296;2024-02-23T15:28:07;8.40;99.90
4399;DHT22;2213;49.720;7.296;2024-02-23T15:30:35;8.40;99.90
4399;DHT22;2213;49.720;7.296;2024-02-23T15:33:04;8.40;99.90
4399;DHT22;2213;49.720;7.296;2024-02-23T15:35:33;8.40;99.90
4399;DHT22;2213;49.720;7.296;2024-02-23T15:38:04;8.30;99.90
4399;DHT22;2213;49.720;7.296;2024-02-23T15:40:32;8.30;99.90
4399;DHT22;2213;49.720;7.296;2024-02-23T15:43:01;8.30;99.90
4399;DHT22;2213;49.720;7.296;2024-02-23T15:45:32;8.30;99.90
4399;DHT22;2213;49.720;7.296;2024-02-23T15:48:00;8.20;99.90
4399;DHT22;2213;49.720;7.296;2024-02-23T15:50:29;7.90;99.90
4399;DHT22;2213;49.720;7.296;2024-02-23T15:53:18;7.90;99.90
4399;DHT22;2213;49.720;7.296;2024-02-23T15:55:46;7.90;99.90
4399;DHT22;2213;49.720;7.296;2024-02-23T15:58:15;7.90;99.90
4399;DHT22;2213;49.720;7.296;2024-02-23T16:00:48;7.80;99.90
4399;DHT22;2213;49.720;7.296;2024-02-23T16:03:16;7.90;99.90
4399;DHT22;2213;49.720;7.296;2024-02-23T16:05:46;7.90;99.90
4399;DHT22;2213;49.720;7.296;2024-02-23T16:08:14;7.90;99.90
4399;DHT22;2213;49.720;7.296;2024-02-23T16:10:43;7.80;99.90
4399;DHT22;2213;49.720;7.296;2024-02-23T16:13:12;7.80;99.90
4399;DHT22;2213;49.720;7.296;2024-02-23T16:15:40;7.80;99.90
4399;DHT22;2213;49.720;7.296;2024-02-23T16:18:10;7.70;99.90
4399;DHT22;2213;49.720;7.296;2024-02-23T16:20:39;7.70;99.90
4399;DHT22;2213;49.720;7.296;2024-02-23T16:23:08;7.60;99.90
4399;DHT22;2213;49.720;7.296;2024-02-23T16:25:37;7.60;99.90
4399;DHT22;2213;49.720;7.296;2024-02-23T16:28:05;7.60;99.90
4399;DHT22;2213;49.720;7.296;2024-02-23T16:30:34;7.70;99.90